createdAt,value
2022-11-17T00:02:06.500Z,99353.00
2022-11-17T00:04:43.180Z,99352.80
2022-11-17T00:07:19.888Z,99348.20
2022-11-17T00:09:56.407Z,99356.40
2022-11-17T00:16:14.382Z,99362.80
2022-11-17T00:19:10.930Z,99365.60
2022-11-17T00:21:48.263Z,99365.60
2022-11-17T00:24:25.726Z,99363.80
2022-11-17T00:27:05.479Z,99361.60
2022-11-17T00:29:42.904Z,99366.00
2022-11-17T00:32:40.096Z,99366.60
2022-11-17T00:35:17.327Z,99365.80
2022-11-17T00:38:06.703Z,99368.40
2022-11-17T00:40:44.240Z,99355.80
2022-11-17T00:43:20.673Z,99352.60
2022-11-17T00:48:39.852Z,99358.60
2022-11-17T00:51:17.840Z,99368.20
2022-11-17T00:53:54.482Z,99370.20
2022-11-17T00:56:30.946Z,99369.60
2022-11-17T00:59:08.592Z,99371.20
2022-11-17T01:01:45.796Z,99376.00
2022-11-17T01:04:22.378Z,99376.20
2022-11-17T01:06:59.679Z,99371.60
2022-11-17T01:09:36.224Z,99364.20
2022-11-17T01:12:13.882Z,99354.20
2022-11-17T01:14:49.937Z,99347.40
2022-11-17T01:17:27.880Z,99352.20
2022-11-17T01:20:04.643Z,99347.60
2022-11-17T01:22:41.546Z,99352.60
2022-11-17T01:25:18.390Z,99353.40
2022-11-17T01:27:54.531Z,99356.60
2022-11-17T01:30:30.725Z,99355.20
2022-11-17T01:33:07.265Z,99355.80
2022-11-17T01:35:44.062Z,99362.40
2022-11-17T01:38:21.031Z,99355.00
2022-11-17T01:40:58.960Z,99351.00
2022-11-17T01:43:59.308Z,99353.40
2022-11-17T01:46:40.980Z,99353.40
2022-11-17T01:49:24.190Z,99348.40
2022-11-17T01:52:12.537Z,99347.80
2022-11-17T01:54:52.552Z,99347.80
2022-11-17T01:57:34.840Z,99354.20
2022-11-17T02:00:21.024Z,99359.80
2022-11-17T02:02:59.203Z,99361.60
2022-11-17T02:05:54.026Z,99361.20
2022-11-17T02:08:33.655Z,99357.80
2022-11-17T02:11:15.391Z,99363.60
2022-11-17T02:13:54.160Z,99367.00
2022-11-17T02:16:31.189Z,99370.40
2022-11-17T02:19:08.295Z,99376.20
2022-11-17T02:22:35.029Z,99379.00
2022-11-17T02:25:45.763Z,99382.60
2022-11-17T02:28:37.145Z,99384.20
2022-11-17T02:31:30.648Z,99382.80
2022-11-17T02:34:21.609Z,99380.60
2022-11-17T02:37:10.728Z,99386.00
2022-11-17T02:39:59.032Z,99389.60
2022-11-17T02:42:59.701Z,99394.60
2022-11-17T02:45:44.812Z,99383.60
2022-11-17T02:48:30.949Z,99381.20
2022-11-17T02:51:14.080Z,99377.00
2022-11-17T02:53:51.699Z,99365.40
2022-11-17T02:56:28.723Z,99357.40
2022-11-17T02:59:10.801Z,99347.20
2022-11-17T03:02:30.981Z,99338.40
2022-11-17T03:05:21.259Z,99330.00
2022-11-17T03:08:31.592Z,99325.00
2022-11-17T03:11:11.978Z,99330.80
2022-11-17T03:13:58.350Z,99328.80
2022-11-17T03:16:41.864Z,99330.40
2022-11-17T03:19:29.587Z,99332.00
2022-11-17T03:22:17.715Z,99333.20
2022-11-17T03:25:00.015Z,99338.60
2022-11-17T03:27:42.434Z,99332.00
2022-11-17T03:30:23.305Z,99335.20
2022-11-17T03:33:06.362Z,99333.60
2022-11-17T03:35:50.970Z,99338.20
2022-11-17T03:38:31.875Z,99344.80
2022-11-17T03:41:12.969Z,99343.60
2022-11-17T03:43:52.145Z,99346.80
2022-11-17T03:46:31.479Z,99343.80
2022-11-17T03:49:23.514Z,99342.20
2022-11-17T03:52:00.383Z,99336.40
2022-11-17T03:54:39.229Z,99331.20
2022-11-17T03:57:29.453Z,99328.60
2022-11-17T04:00:11.758Z,99320.60
2022-11-17T04:02:56.754Z,99318.80
2022-11-17T04:05:34.111Z,99319.00
2022-11-17T04:08:11.755Z,99317.00
2022-11-17T04:11:05.876Z,99319.80
2022-11-17T04:13:59.539Z,99320.40
2022-11-17T04:16:36.350Z,99320.60
2022-11-17T04:19:13.489Z,99324.20
2022-11-17T04:21:49.947Z,99334.80
2022-11-17T04:24:27.040Z,99341.60
2022-11-17T04:27:19.823Z,99342.80
2022-11-17T04:29:56.747Z,99337.40
2022-11-17T04:32:33.881Z,99344.00
2022-11-17T04:35:12.695Z,99349.40
2022-11-17T04:37:49.154Z,99353.80
2022-11-17T04:40:26.638Z,99359.40
2022-11-17T04:43:02.956Z,99363.60
2022-11-17T04:45:42.370Z,99365.40
2022-11-17T04:48:18.768Z,99363.40
2022-11-17T04:50:58.012Z,99366.00
2022-11-17T04:53:34.881Z,99369.40
2022-11-17T04:56:13.279Z,99377.60
2022-11-17T04:58:49.219Z,99382.60
2022-11-17T05:01:29.731Z,99380.80
2022-11-17T05:04:07.798Z,99384.00
2022-11-17T05:06:46.598Z,99382.20
2022-11-17T05:09:24.137Z,99376.40
2022-11-17T05:12:16.874Z,99371.60
2022-11-17T05:14:53.530Z,99360.80
2022-11-17T05:17:30.080Z,99343.80
2022-11-17T05:20:06.387Z,99336.40
2022-11-17T05:23:06.346Z,99339.20
2022-11-17T05:25:43.774Z,99351.00
2022-11-17T05:28:20.507Z,99357.60
2022-11-17T05:30:57.475Z,99368.00
2022-11-17T05:33:37.765Z,99361.80
2022-11-17T05:36:19.261Z,99371.60
2022-11-17T05:38:55.225Z,99362.40
2022-11-17T05:41:31.390Z,99354.40
2022-11-17T05:44:08.149Z,99352.40
2022-11-17T05:46:44.234Z,99344.20
2022-11-17T05:49:21.169Z,99352.60
2022-11-17T05:51:57.460Z,99361.40
2022-11-17T05:54:33.679Z,99352.80
2022-11-17T05:57:15.244Z,99344.60
2022-11-17T05:59:58.576Z,99349.00
2022-11-17T06:02:42.322Z,99350.20
2022-11-17T06:05:20.548Z,99348.40
2022-11-17T06:07:59.156Z,99342.80
2022-11-17T06:10:36.147Z,99348.20
2022-11-17T06:13:13.165Z,99351.40
2022-11-17T06:15:49.479Z,99350.00
2022-11-17T06:18:31.541Z,99353.00
2022-11-17T06:21:13.875Z,99349.00
2022-11-17T06:23:53.053Z,99351.20
2022-11-17T06:26:30.352Z,99345.60
2022-11-17T06:29:08.616Z,99331.00
2022-11-17T06:31:48.143Z,99324.20
2022-11-17T06:34:25.003Z,99322.00
2022-11-17T06:37:00.684Z,99325.60
2022-11-17T06:39:37.609Z,99322.20
2022-11-17T06:42:15.014Z,99323.60
2022-11-17T06:44:51.956Z,99331.00
2022-11-17T06:47:28.562Z,99327.60
2022-11-17T06:50:04.532Z,99325.00
2022-11-17T06:52:41.088Z,99323.60
2022-11-17T06:55:20.454Z,99328.00
2022-11-17T06:58:00.167Z,99330.00
2022-11-17T07:00:36.892Z,99335.20
2022-11-17T07:03:13.843Z,99324.60
2022-11-17T07:05:52.022Z,99316.80
2022-11-17T07:08:28.441Z,99305.80
2022-11-17T07:11:11.793Z,99293.60
2022-11-17T07:13:49.574Z,99313.40
2022-11-17T07:16:26.043Z,99325.40
2022-11-17T07:19:03.907Z,99322.40
2022-11-17T07:21:40.994Z,99319.60
2022-11-17T07:24:17.532Z,99319.60
2022-11-17T07:26:54.211Z,99333.20
2022-11-17T07:29:31.163Z,99331.40
2022-11-17T07:32:08.120Z,99329.80
2022-11-17T07:34:45.162Z,99337.20
2022-11-17T07:37:22.400Z,99352.00
2022-11-17T07:39:59.369Z,99348.40
2022-11-17T07:42:35.427Z,99347.40
2022-11-17T07:45:18.021Z,99354.40
2022-11-17T07:48:01.129Z,99359.60
2022-11-17T07:50:40.306Z,99364.80
2022-11-17T07:53:17.965Z,99367.20
2022-11-17T07:55:55.215Z,99367.60
2022-11-17T07:58:32.122Z,99372.20
2022-11-17T08:01:12.798Z,99373.60
2022-11-17T08:03:49.503Z,99376.60
2022-11-17T08:06:25.106Z,99374.80
2022-11-17T08:09:01.154Z,99378.80
2022-11-17T08:11:38.414Z,99378.80
2022-11-17T08:14:15.412Z,99382.60
2022-11-17T08:16:52.757Z,99380.60
2022-11-17T08:19:29.710Z,99385.80
2022-11-17T08:22:06.811Z,99383.40
2022-11-17T08:24:43.132Z,99386.80
2022-11-17T08:27:20.050Z,99389.00
2022-11-17T08:29:56.329Z,99397.20
2022-11-17T08:32:32.953Z,99392.40
2022-11-17T08:35:12.210Z,99382.20
2022-11-17T08:37:50.089Z,99378.60
2022-11-17T08:40:28.848Z,99382.20
2022-11-17T08:43:06.420Z,99383.80
2022-11-17T08:45:42.949Z,99384.20
2022-11-17T08:48:19.030Z,99386.80
2022-11-17T08:50:55.273Z,99385.40
2022-11-17T08:53:32.574Z,99377.80
2022-11-17T08:56:11.739Z,99378.60
2022-11-17T08:58:50.455Z,99384.60
2022-11-17T09:01:27.518Z,99383.80
2022-11-17T09:04:04.363Z,99386.20
2022-11-17T09:06:41.690Z,99389.40
2022-11-17T09:09:18.938Z,99387.20
2022-11-17T09:11:55.974Z,99386.40
2022-11-17T09:14:32.878Z,99385.00
2022-11-17T09:17:08.737Z,99389.60
2022-11-17T09:19:45.178Z,99384.80
2022-11-17T09:22:22.105Z,99382.20
2022-11-17T09:24:59.103Z,99377.40
2022-11-17T09:27:36.645Z,99374.80
2022-11-17T09:30:22.198Z,99379.20
2022-11-17T09:33:01.048Z,99378.40
2022-11-17T09:35:37.686Z,99381.80
2022-11-17T09:38:14.308Z,99389.20
2022-11-17T09:40:51.045Z,99393.20
2022-11-17T09:43:36.074Z,99396.40
2022-11-17T09:46:19.885Z,99390.20
2022-11-17T09:49:08.754Z,99391.60
2022-11-17T09:51:49.818Z,99396.40
2022-11-17T09:54:46.252Z,99399.80
2022-11-17T09:57:33.058Z,99410.20
2022-11-17T10:00:21.745Z,99408.20
2022-11-17T10:02:59.338Z,99409.40
2022-11-17T10:05:38.061Z,99412.40
2022-11-17T10:08:22.857Z,99413.20
2022-11-17T10:10:59.630Z,99413.40
2022-11-17T10:13:41.153Z,99408.00
2022-11-17T10:16:21.625Z,99400.60
2022-11-17T10:18:59.579Z,99401.20
2022-11-17T10:21:39.627Z,99408.80
2022-11-17T10:24:34.952Z,99403.20
2022-11-17T10:27:25.137Z,99397.40
2022-11-17T10:30:24.542Z,99390.80
2022-11-17T10:33:03.285Z,99390.20
2022-11-17T10:35:41.233Z,99393.80
2022-11-17T10:38:33.622Z,99392.60
2022-11-17T10:41:15.796Z,99387.80
2022-11-17T10:44:03.748Z,99381.40
2022-11-17T10:47:02.279Z,99374.40
2022-11-17T10:49:41.533Z,99372.40
2022-11-17T10:52:25.372Z,99372.20
2022-11-17T10:55:36.555Z,99369.20
2022-11-17T10:58:29.843Z,99357.40
2022-11-17T11:01:08.585Z,99353.60
2022-11-17T11:03:53.576Z,99348.80
2022-11-17T11:06:33.145Z,99345.00
2022-11-17T11:09:16.475Z,99338.80
2022-11-17T11:11:58.426Z,99324.00
2022-11-17T11:14:43.198Z,99320.40
2022-11-17T11:17:22.305Z,99318.80
2022-11-17T11:20:02.335Z,99320.60
2022-11-17T11:22:54.727Z,99325.40
2022-11-17T11:25:43.937Z,99332.20
2022-11-17T11:28:47.958Z,99325.20
2022-11-17T11:31:39.470Z,99326.80
2022-11-17T11:34:57.309Z,99330.80
2022-11-17T11:37:47.405Z,99332.40
2022-11-17T11:40:32.109Z,99325.60
2022-11-17T11:43:30.494Z,99321.20
2022-11-17T11:46:25.953Z,99319.80
2022-11-17T11:49:30.197Z,99316.80
2022-11-17T11:52:13.565Z,99317.60
2022-11-17T11:54:58.368Z,99314.00
2022-11-17T11:57:43.723Z,99302.40
2022-11-17T12:00:27.615Z,99303.60
2022-11-17T12:03:23.459Z,99301.80
2022-11-17T12:06:33.111Z,99305.00
2022-11-17T12:09:41.952Z,99307.40
2022-11-17T12:12:25.342Z,99305.80
2022-11-17T12:15:40.154Z,99289.60
2022-11-17T12:18:36.443Z,99301.40
2022-11-17T12:21:27.102Z,99301.20
2022-11-17T12:24:21.176Z,99307.80
2022-11-17T12:27:17.327Z,99307.60
2022-11-17T12:29:56.450Z,99316.20
2022-11-17T12:32:58.239Z,99306.00
2022-11-17T12:35:36.655Z,99308.80
2022-11-17T12:38:47.776Z,99322.20
2022-11-17T12:42:21.802Z,99321.20
2022-11-17T12:45:03.499Z,99323.00
2022-11-17T12:47:41.438Z,99324.40
2022-11-17T12:53:43.678Z,99315.40
2022-11-17T12:56:46.909Z,99311.60
2022-11-17T13:00:11.553Z,99310.80
2022-11-17T13:03:18.236Z,99311.40
2022-11-17T13:09:17.368Z,99306.60
2022-11-17T13:12:08.747Z,99314.20
2022-11-17T13:15:00.775Z,99311.00
2022-11-17T13:17:42.055Z,99311.60
2022-11-17T13:20:31.614Z,99317.60
2022-11-17T13:23:14.767Z,99322.80
2022-11-17T13:25:52.340Z,99323.20
2022-11-17T13:28:38.629Z,99321.60
2022-11-17T13:31:25.821Z,99307.20
2022-11-17T13:34:09.593Z,99308.00
2022-11-17T13:37:00.743Z,99310.80
2022-11-17T13:39:37.463Z,99304.00
2022-11-17T13:42:14.568Z,99304.80
2022-11-17T13:44:52.352Z,99304.20
2022-11-17T13:47:47.724Z,99294.00
2022-11-17T13:50:42.902Z,99299.80
2022-11-17T13:53:30.280Z,99308.80
2022-11-17T13:56:23.227Z,99301.40
2022-11-17T13:58:59.907Z,99294.40
2022-11-17T14:01:36.368Z,99292.00
2022-11-17T14:04:26.923Z,99301.00
2022-11-17T14:07:15.317Z,99298.40
2022-11-17T14:10:12.630Z,99288.40
2022-11-17T14:12:49.631Z,99281.60
2022-11-17T14:15:32.834Z,99276.40
2022-11-17T14:18:28.095Z,99278.80
2022-11-17T14:21:28.496Z,99275.60
2022-11-17T14:24:18.471Z,99276.00
2022-11-17T14:26:55.215Z,99278.60
2022-11-17T14:29:31.048Z,99284.00
2022-11-17T14:32:08.439Z,99284.60
2022-11-17T14:34:45.419Z,99292.20
2022-11-17T14:37:22.594Z,99296.80
2022-11-17T14:40:00.973Z,99302.80
2022-11-17T14:42:38.220Z,99298.60
2022-11-17T14:45:19.381Z,99308.20
2022-11-17T14:47:56.306Z,99308.60
2022-11-17T14:50:33.323Z,99305.40
2022-11-17T14:53:10.346Z,99303.80
2022-11-17T14:55:46.821Z,99309.80
2022-11-17T14:58:23.096Z,99315.00
2022-11-17T15:00:59.640Z,99321.60
2022-11-17T15:03:36.327Z,99324.20
2022-11-17T15:06:20.297Z,99325.00
2022-11-17T15:09:01.531Z,99326.20
2022-11-17T15:11:39.554Z,99321.80
2022-11-17T15:14:16.324Z,99322.80
2022-11-17T15:16:53.194Z,99328.20
2022-11-17T15:19:29.646Z,99321.80
2022-11-17T15:22:06.257Z,99317.00
2022-11-17T15:24:43.376Z,99315.40
2022-11-17T15:27:20.506Z,99313.20
2022-11-17T15:29:57.099Z,99306.80
2022-11-17T15:32:33.421Z,99305.80
2022-11-17T15:35:12.623Z,99306.80
2022-11-17T15:37:48.785Z,99315.60
2022-11-17T15:40:26.395Z,99323.60
2022-11-17T15:43:05.634Z,99329.80
2022-11-17T15:45:41.503Z,99328.60
2022-11-17T15:48:18.936Z,99329.80
2022-11-17T15:51:01.121Z,99340.40
2022-11-17T15:53:39.580Z,99348.80
2022-11-17T15:56:19.270Z,99349.60
2022-11-17T15:59:03.377Z,99343.00
2022-11-17T16:01:41.091Z,99342.00
2022-11-17T16:04:18.254Z,99335.80
2022-11-17T16:06:54.896Z,99332.20
2022-11-17T16:09:31.801Z,99335.00
2022-11-17T16:12:09.452Z,99340.60
2022-11-17T16:14:46.202Z,99338.00
2022-11-17T16:17:23.450Z,99333.20
2022-11-17T16:20:00.771Z,99334.80
2022-11-17T16:22:38.010Z,99334.00
2022-11-17T16:25:17.160Z,99342.40
2022-11-17T16:27:53.745Z,99345.40
2022-11-17T16:30:35.347Z,99340.00
2022-11-17T16:33:16.767Z,99344.40
2022-11-17T16:35:53.620Z,99341.00
2022-11-17T16:38:30.337Z,99342.40
2022-11-17T16:41:09.194Z,99349.80
2022-11-17T16:43:46.221Z,99359.80
2022-11-17T16:46:35.942Z,99364.20
2022-11-17T16:49:17.553Z,99368.60
2022-11-17T16:51:57.223Z,99371.40
2022-11-17T16:54:34.144Z,99368.20
2022-11-17T16:57:11.831Z,99365.80
2022-11-17T16:59:48.354Z,99359.00
2022-11-17T17:02:23.899Z,99351.40
2022-11-17T17:05:00.494Z,99345.20
2022-11-17T17:07:38.191Z,99348.60
2022-11-17T17:10:18.006Z,99353.20
2022-11-17T17:12:55.840Z,99353.00
2022-11-17T17:15:31.884Z,99352.40
2022-11-17T17:18:09.233Z,99353.80
2022-11-17T17:20:51.439Z,99362.20
2022-11-17T17:23:28.071Z,99359.20
2022-11-17T17:26:14.396Z,99355.20
2022-11-17T17:28:51.755Z,99354.40
2022-11-17T17:31:32.941Z,99352.40
2022-11-17T17:34:09.584Z,99347.00
2022-11-17T17:36:46.053Z,99346.00
2022-11-17T17:39:23.472Z,99348.20
2022-11-17T17:42:01.192Z,99350.80
2022-11-17T17:44:37.983Z,99353.00
2022-11-17T17:47:15.737Z,99358.40
2022-11-17T17:49:52.922Z,99356.80
2022-11-17T17:52:30.159Z,99344.00
2022-11-17T17:55:07.832Z,99343.00
2022-11-17T17:57:43.675Z,99345.20
2022-11-17T18:00:28.535Z,99347.20
2022-11-17T18:03:04.820Z,99348.40
2022-11-17T18:05:41.313Z,99344.00
2022-11-17T18:08:17.663Z,99333.60
2022-11-17T18:10:54.094Z,99324.20
2022-11-17T18:13:34.425Z,99328.80
2022-11-17T18:16:15.678Z,99333.80
2022-11-17T18:18:51.592Z,99335.80
2022-11-17T18:21:28.747Z,99340.20
2022-11-17T18:24:07.476Z,99331.40
2022-11-17T18:26:44.044Z,99329.20
2022-11-17T18:29:23.006Z,99328.20
2022-11-17T18:32:00.632Z,99336.20
2022-11-17T18:34:37.361Z,99332.20
2022-11-17T18:37:14.084Z,99332.80
2022-11-17T18:39:51.576Z,99334.80
2022-11-17T18:42:28.413Z,99325.60
2022-11-17T18:45:05.143Z,99314.60
2022-11-17T18:47:41.713Z,99316.80
2022-11-17T18:50:21.160Z,99325.20
2022-11-17T18:52:57.101Z,99329.60
2022-11-17T18:55:34.288Z,99327.20
2022-11-17T18:58:11.493Z,99324.40
2022-11-17T19:00:48.996Z,99314.40
2022-11-17T19:03:26.297Z,99297.80
2022-11-17T19:06:03.953Z,99290.60
2022-11-17T19:08:42.231Z,99293.20
2022-11-17T19:11:20.230Z,99289.80
2022-11-17T19:13:57.673Z,99287.60
2022-11-17T19:16:44.523Z,99291.40
2022-11-17T19:19:22.590Z,99298.80
2022-11-17T19:22:00.214Z,99307.20
2022-11-17T19:24:39.107Z,99313.80
2022-11-17T19:27:16.139Z,99309.00
2022-11-17T19:29:52.722Z,99308.60
2022-11-17T19:32:29.299Z,99306.60
2022-11-17T19:35:15.713Z,99305.60
2022-11-17T19:37:55.208Z,99294.80
2022-11-17T19:40:32.445Z,99300.00
2022-11-17T19:43:10.357Z,99305.40
2022-11-17T19:45:48.624Z,99294.00
2022-11-17T19:48:25.027Z,99287.80
2022-11-17T19:51:01.527Z,99287.00
2022-11-17T19:53:39.623Z,99280.40
2022-11-17T19:56:17.778Z,99283.40
2022-11-17T19:59:00.196Z,99283.80
2022-11-17T20:01:38.306Z,99277.80
2022-11-17T20:04:15.054Z,99281.20
2022-11-17T20:06:51.882Z,99277.00
2022-11-17T20:09:29.645Z,99275.00
2022-11-17T20:12:05.551Z,99277.60
2022-11-17T20:14:42.202Z,99276.20
2022-11-17T20:17:18.673Z,99274.60
2022-11-17T20:19:55.126Z,99269.60
2022-11-17T20:22:31.766Z,99266.40
2022-11-17T20:25:09.076Z,99266.40
2022-11-17T20:27:45.929Z,99263.80
2022-11-17T20:30:24.632Z,99264.20
2022-11-17T20:33:01.269Z,99257.60
2022-11-17T20:35:37.153Z,99253.20
2022-11-17T20:38:15.918Z,99243.00
2022-11-17T20:40:52.856Z,99232.60
2022-11-17T20:43:30.458Z,99235.80
2022-11-17T20:46:07.259Z,99232.60
2022-11-17T20:48:44.399Z,99237.20
2022-11-17T20:51:24.481Z,99238.80
2022-11-17T20:54:01.970Z,99234.20
2022-11-17T20:56:38.471Z,99222.00
2022-11-17T20:59:19.775Z,99222.00
2022-11-17T21:01:57.670Z,99220.40
2022-11-17T21:04:35.177Z,99231.60
2022-11-17T21:07:12.421Z,99236.20
2022-11-17T21:09:49.123Z,99241.60
2022-11-17T21:12:25.832Z,99238.60
2022-11-17T21:15:01.888Z,99237.00
2022-11-17T21:17:58.308Z,99236.40
2022-11-17T21:20:35.962Z,99240.60
2022-11-17T21:23:13.605Z,99245.80
2022-11-17T21:25:49.765Z,99246.40
2022-11-17T21:28:27.166Z,99249.60
2022-11-17T21:31:12.749Z,99259.60
2022-11-17T21:33:49.878Z,99262.00
2022-11-17T21:36:27.323Z,99260.00
2022-11-17T21:39:04.497Z,99248.00
2022-11-17T21:41:41.470Z,99254.20
2022-11-17T21:44:20.320Z,99260.40
2022-11-17T21:46:57.484Z,99244.60
2022-11-17T21:49:33.957Z,99237.00
2022-11-17T21:52:11.562Z,99240.20
2022-11-17T21:54:49.012Z,99231.40
2022-11-17T21:57:26.688Z,99230.80
2022-11-17T22:00:04.366Z,99236.00
2022-11-17T22:02:42.099Z,99237.20
2022-11-17T22:05:19.427Z,99234.20
2022-11-17T22:07:56.019Z,99236.20
2022-11-17T22:10:33.154Z,99242.80
2022-11-17T22:13:10.213Z,99253.60
2022-11-17T22:15:47.794Z,99247.00
2022-11-17T22:18:24.737Z,99248.60
2022-11-17T22:21:01.223Z,99255.40
2022-11-17T22:23:37.165Z,99249.20
2022-11-17T22:26:15.804Z,99235.20
2022-11-17T22:28:55.302Z,99237.20
2022-11-17T22:31:31.348Z,99244.00
2022-11-17T22:34:09.635Z,99235.80
2022-11-17T22:36:47.449Z,99223.20
2022-11-17T22:39:25.179Z,99212.00
2022-11-17T22:42:02.010Z,99211.80
2022-11-17T22:44:39.360Z,99202.20
2022-11-17T22:47:15.988Z,99212.60
2022-11-17T22:49:52.586Z,99225.60
2022-11-17T22:52:30.224Z,99226.40
2022-11-17T22:55:07.348Z,99230.40
2022-11-17T22:57:45.146Z,99208.80
2022-11-17T23:00:27.160Z,99189.40
2022-11-17T23:03:04.946Z,99174.20
2022-11-17T23:05:42.168Z,99151.80
2022-11-17T23:08:19.672Z,99125.40
2022-11-17T23:11:29.592Z,99143.80
2022-11-17T23:13:58.356Z,99152.00
2022-11-17T23:16:35.290Z,99172.40
2022-11-17T23:19:13.506Z,99181.80
2022-11-17T23:21:49.080Z,99174.00
2022-11-17T23:24:26.558Z,99167.80
2022-11-17T23:27:03.900Z,99155.80
2022-11-17T23:29:41.141Z,99161.80
2022-11-17T23:32:17.606Z,99159.40
2022-11-17T23:34:53.783Z,99155.00
2022-11-17T23:37:31.408Z,99159.60
2022-11-17T23:40:09.758Z,99157.40
2022-11-17T23:42:46.240Z,99155.80
2022-11-17T23:45:22.835Z,99156.80
2022-11-17T23:47:59.530Z,99157.60
2022-11-17T23:50:35.612Z,99154.00
2022-11-17T23:53:12.347Z,99147.80
2022-11-17T23:55:55.421Z,99153.20
2022-11-17T23:58:32.873Z,99150.60
